Point Pleasant, PA (18950)

7:06 PM EST on January 20, 2017 (GMT -0500)
Ockanickon Scout Reservation | | Change Station
Active Advisory: Storm Watch

Elev 460 ft 40.43 °N, 75.09 °W | Updated 1 minute ago

Overcast
Overcast
37.0 °F
Feels Like 37 °F
N
0.0
Wind Variable Wind from North
Gusts 3.0 mph

Today
High -- | Low -- °F
--% Chance of Precip.
Yesterday
High -- | Low -- °F
Precip. -- in
Pressure 29.93 in
Visibility 7.0 miles
Clouds Overcast 300 ft
Windchill 37 °F
Dew Point Not available.
Humidity Not available.
Rainfall Not available.
Snow Depth Not available.
7:18 AM 5:04 PM
Last Quarter, 40% visible
METAR KDYL 202354Z AUTO 16003KT 7SM OVC003 04/04 A2991 RMK AO2 RAB32E48 SLP133 P0000 60016 T00440039 10044 20039 55002
Pressure 29.93 in
Visibility 7.0 miles
Clouds Overcast 300 ft
Windchill 37 °F
Dew Point Not available.
Humidity Not available.
Rainfall Not available.
Snow Depth Not available.
7:18 AM 5:04 PM
Last Quarter, 40% visible
METAR KDYL 202354Z AUTO 16003KT 7SM OVC003 04/04 A2991 RMK AO2 RAB32E48 SLP133 P0000 60016 T00440039 10044 20039 55002

Get Your Daily Forecast Email!

Thanks for signing up!

Be on the lookout for a verification email in your inbox.

You'll start receiving the daily forecast at 8 AM.

×

10-Day Weather Forecast

Almanac

Astronomy

Jan. 20, 2017 Rise Set
Actual Time
Civil Twilight
Nautical Twilight
Astronomical Twilight
Moon
Length of Visible Light
Length of Day
Tomorrow will be .
, % of the Moon is Illuminated

Today's Extremes

State Highs State Lows

Community

WunderPhotos

Upload Photos

1,962,540 photos uploaded!

WunderBlog® & News

Nearby

Air Quality

  Air Quality AQ Index Pollutant
Not available.

Snow Depth

Station Depth Elevation

Earthquake Activity

City Distance Mag. Time & Date
Minimum magnitude displayed is 2.5.

Coastal Water Temperatures

Place Temperature

Stations

Nearby Weather Stations

Station Location Temp. Windchill Dew Point Humidity Wind Precip. Elev Updated Type
                   

Watches & Warnings

Storm Watch
Issued: 3:08 PM EST Jan. 20, 2017 – National Weather Service

... Storm watch in effect from late Sunday night through late
Monday night...

The National Weather Service in Upton has issued a storm watch...
which is in effect from late Sunday night through late Monday
night.

* Winds and seas... northeast winds 40 to 45 kt with gusts up to 60
kt on ocean... 35 to 40 kt with gusts to 50 kt on the nearshore
waters. Seas 16 to 21 feet on the ocean... and 5 to 10 ft on
Long Island Sound.

Precautionary/preparedness actions...

A storm watch is issued when the risk of storm force winds of
48 to 63 kt has significantly increased... but the specific timing
and/or location is still uncertain. It is intended to provide
additional lead time for mariners who may wish to consider
altering their plans.